createdAt,value
2022-11-16T00:02:13.443Z,10.40
2022-11-16T00:04:40.328Z,10.30
2022-11-16T00:07:07.464Z,10.30
2022-11-16T00:09:34.297Z,10.30
2022-11-16T00:12:04.994Z,10.30
2022-11-16T00:14:33.973Z,10.30
2022-11-16T00:17:01.492Z,10.30
2022-11-16T00:19:28.542Z,10.20
2022-11-16T00:21:55.368Z,10.20
2022-11-16T00:24:23.285Z,10.20
2022-11-16T00:26:50.646Z,10.20
2022-11-16T00:29:19.597Z,10.10
2022-11-16T00:31:47.128Z,10.10
2022-11-16T00:34:13.907Z,10.10
2022-11-16T00:36:40.543Z,10.00
2022-11-16T00:39:07.179Z,9.90
2022-11-16T00:41:33.747Z,9.90
2022-11-16T00:44:00.358Z,9.80
2022-11-16T00:46:26.972Z,9.90
2022-11-16T00:48:53.804Z,9.90
2022-11-16T00:51:20.417Z,9.90
2022-11-16T00:53:47.274Z,9.90
2022-11-16T00:56:13.860Z,9.90
2022-11-16T00:58:40.436Z,9.90
2022-11-16T01:01:08.657Z,9.90
2022-11-16T01:03:36.353Z,10.00
2022-11-16T01:06:04.818Z,10.00
2022-11-16T01:08:32.735Z,10.10
2022-11-16T01:11:18.090Z,10.20
2022-11-16T01:13:44.720Z,10.20
2022-11-16T01:16:17.899Z,10.20
2022-11-16T01:18:47.901Z,10.20
2022-11-16T01:21:14.690Z,10.20
2022-11-16T01:23:41.355Z,10.10
2022-11-16T01:26:07.965Z,10.10
2022-11-16T01:28:34.808Z,10.10
2022-11-16T01:31:01.960Z,10.10
2022-11-16T01:33:30.480Z,10.00
2022-11-16T01:35:57.187Z,10.00
2022-11-16T01:38:28.446Z,10.00
2022-11-16T01:40:56.282Z,10.00
2022-11-16T01:43:25.355Z,9.90
2022-11-16T01:45:52.214Z,9.90
2022-11-16T01:48:27.232Z,9.90
2022-11-16T01:50:56.280Z,9.90
2022-11-16T01:53:24.421Z,9.90
2022-11-16T01:55:51.399Z,9.90
2022-11-16T01:58:23.084Z,9.80
2022-11-16T02:00:49.981Z,9.80
2022-11-16T02:03:20.503Z,9.80
2022-11-16T02:06:11.774Z,9.80
2022-11-16T02:09:02.942Z,9.90
2022-11-16T02:11:45.499Z,9.90
2022-11-16T02:14:30.204Z,9.90
2022-11-16T02:17:02.985Z,9.90
2022-11-16T02:19:38.365Z,9.90
2022-11-16T02:22:30.547Z,9.90
2022-11-16T02:25:06.413Z,9.90
2022-11-16T02:27:37.129Z,9.90
2022-11-16T02:30:05.970Z,9.90
2022-11-16T02:32:45.291Z,9.90
2022-11-16T02:35:28.989Z,9.90
2022-11-16T02:38:01.877Z,9.90
2022-11-16T02:40:31.824Z,9.80
2022-11-16T02:43:04.472Z,9.90
2022-11-16T02:45:36.333Z,9.80
2022-11-16T02:48:19.123Z,9.90
2022-11-16T02:50:46.666Z,9.90
2022-11-16T02:53:14.280Z,10.00
2022-11-16T02:55:41.490Z,9.90
2022-11-16T02:58:12.297Z,9.90
2022-11-16T03:01:07.615Z,9.90
2022-11-16T03:04:00.015Z,10.00
2022-11-16T03:06:33.454Z,10.00
2022-11-16T03:09:05.713Z,10.00
2022-11-16T03:11:53.580Z,10.10
2022-11-16T03:14:24.544Z,10.10
2022-11-16T03:16:58.729Z,10.10
2022-11-16T03:19:41.453Z,10.10
2022-11-16T03:22:20.306Z,10.10
2022-11-16T03:24:47.933Z,10.10
2022-11-16T03:27:42.235Z,10.10
2022-11-16T03:30:12.789Z,10.10
2022-11-16T03:32:51.165Z,10.20
2022-11-16T03:35:32.626Z,10.20
2022-11-16T03:38:02.781Z,10.20
2022-11-16T03:40:31.855Z,10.30
2022-11-16T03:43:01.297Z,10.30
2022-11-16T03:45:29.090Z,10.30
2022-11-16T03:47:55.829Z,10.30
2022-11-16T03:50:22.730Z,10.30
2022-11-16T03:52:49.351Z,10.30
2022-11-16T03:55:16.326Z,10.30
2022-11-16T03:57:42.915Z,10.30
2022-11-16T04:00:10.642Z,10.30
2022-11-16T04:02:37.250Z,10.30
2022-11-16T04:05:22.501Z,10.30
2022-11-16T04:08:07.992Z,10.30
2022-11-16T04:10:53.254Z,10.30
2022-11-16T04:13:46.573Z,10.30
2022-11-16T04:16:31.887Z,10.30
2022-11-16T04:19:17.497Z,10.30
2022-11-16T04:22:10.321Z,10.30
2022-11-16T04:24:39.930Z,10.30
2022-11-16T04:27:29.457Z,10.20
2022-11-16T04:29:59.153Z,10.20
2022-11-16T04:32:44.670Z,10.20
2022-11-16T04:35:29.921Z,10.20
2022-11-16T04:37:58.941Z,10.10
2022-11-16T04:40:30.198Z,10.10
2022-11-16T04:42:59.423Z,10.10
2022-11-16T04:45:46.732Z,10.10
2022-11-16T04:48:15.277Z,10.10
2022-11-16T04:50:42.198Z,10.10
2022-11-16T04:53:09.746Z,10.10
2022-11-16T04:55:36.690Z,10.10
2022-11-16T04:58:04.003Z,10.10
2022-11-16T05:00:30.877Z,10.00
2022-11-16T05:03:01.217Z,9.90
2022-11-16T05:05:28.617Z,9.90
2022-11-16T05:07:55.676Z,9.80
2022-11-16T05:10:22.315Z,9.80
2022-11-16T05:12:48.917Z,9.70
2022-11-16T05:15:17.527Z,9.70
2022-11-16T05:17:44.139Z,9.70
2022-11-16T05:20:30.143Z,9.80
2022-11-16T05:22:58.509Z,9.80
2022-11-16T05:25:25.588Z,9.80
2022-11-16T05:27:52.431Z,9.90
2022-11-16T05:30:19.149Z,9.90
2022-11-16T05:32:45.742Z,9.90
2022-11-16T05:35:12.361Z,9.90
2022-11-16T05:37:38.943Z,10.00
2022-11-16T05:40:06.294Z,10.00
2022-11-16T05:42:32.997Z,10.00
2022-11-16T05:44:59.644Z,9.90
2022-11-16T05:47:26.193Z,10.00
2022-11-16T05:49:52.791Z,10.00
2022-11-16T05:52:19.362Z,9.90
2022-11-16T05:54:46.076Z,9.90
2022-11-16T05:57:12.681Z,9.90
2022-11-16T05:59:39.259Z,9.90
2022-11-16T06:02:05.916Z,9.90
2022-11-16T06:04:33.359Z,9.90
2022-11-16T06:06:59.963Z,9.80
2022-11-16T06:09:26.565Z,9.70
2022-11-16T06:11:53.160Z,9.70
2022-11-16T06:14:19.770Z,9.60
2022-11-16T06:16:46.366Z,9.50
2022-11-16T06:19:12.931Z,9.50
2022-11-16T06:21:39.589Z,9.60
2022-11-16T06:24:08.992Z,9.60
2022-11-16T06:26:36.256Z,9.60
2022-11-16T06:29:03.052Z,9.50
2022-11-16T06:31:29.883Z,9.40
2022-11-16T06:33:56.459Z,9.40
2022-11-16T06:36:23.089Z,9.40
2022-11-16T06:38:50.771Z,9.40
2022-11-16T06:41:17.846Z,9.50
2022-11-16T06:43:44.707Z,9.50
2022-11-16T06:46:11.446Z,9.50
2022-11-16T06:48:38.178Z,9.50
2022-11-16T06:51:05.121Z,9.60
2022-11-16T06:53:31.864Z,9.50
2022-11-16T06:56:05.952Z,9.50
2022-11-16T06:58:33.374Z,9.50
2022-11-16T07:01:10.979Z,9.60
2022-11-16T07:03:38.424Z,9.60
2022-11-16T07:06:10.367Z,9.60
2022-11-16T07:08:37.784Z,9.60
2022-11-16T07:11:05.900Z,9.60
2022-11-16T07:13:33.472Z,9.70
2022-11-16T07:16:08.610Z,9.70
2022-11-16T07:18:37.531Z,9.70
2022-11-16T07:21:11.927Z,9.70
2022-11-16T07:23:39.043Z,9.70
2022-11-16T07:26:07.864Z,9.80
2022-11-16T07:28:34.889Z,9.90
2022-11-16T07:31:06.844Z,9.90
2022-11-16T07:33:34.319Z,9.90
2022-11-16T07:36:02.623Z,9.90
2022-11-16T07:38:29.683Z,9.90
2022-11-16T07:41:03.505Z,9.90
2022-11-16T07:43:35.260Z,9.90
2022-11-16T07:46:41.270Z,9.90
2022-11-16T07:48:53.902Z,10.00
2022-11-16T07:51:20.519Z,10.10
2022-11-16T07:53:47.218Z,10.10
2022-11-16T07:56:13.956Z,10.10
2022-11-16T07:58:40.643Z,10.20
2022-11-16T08:01:12.879Z,10.20
2022-11-16T08:03:40.461Z,10.20
2022-11-16T08:06:28.807Z,10.20
2022-11-16T08:08:58.639Z,10.20
2022-11-16T08:11:26.418Z,10.30
2022-11-16T08:13:53.222Z,10.20
2022-11-16T08:16:21.636Z,10.20
2022-11-16T08:18:48.813Z,10.10
2022-11-16T08:21:17.350Z,10.10
2022-11-16T08:23:47.090Z,10.10
2022-11-16T08:26:19.234Z,10.20
2022-11-16T08:28:47.322Z,10.20
2022-11-16T08:31:17.391Z,10.30
2022-11-16T08:33:44.148Z,10.30
2022-11-16T08:36:17.167Z,10.40
2022-11-16T08:38:48.426Z,10.40
2022-11-16T08:41:16.342Z,10.50
2022-11-16T08:43:44.549Z,10.50
2022-11-16T08:46:11.553Z,10.60
2022-11-16T08:48:38.216Z,10.60
2022-11-16T08:51:17.354Z,10.60
2022-11-16T08:53:45.329Z,10.70
2022-11-16T08:56:15.234Z,10.70
2022-11-16T08:58:43.668Z,10.60
2022-11-16T09:01:13.809Z,10.80
2022-11-16T09:03:41.242Z,10.70
2022-11-16T09:06:09.179Z,10.80
2022-11-16T09:08:38.059Z,10.80
2022-11-16T09:11:06.001Z,10.80
2022-11-16T09:13:32.597Z,10.80
2022-11-16T09:16:00.403Z,10.80
2022-11-16T09:18:28.139Z,10.90
2022-11-16T09:20:55.091Z,10.90
2022-11-16T09:23:25.321Z,11.00
2022-11-16T09:25:53.175Z,11.00
2022-11-16T09:28:20.678Z,11.10
2022-11-16T09:30:50.006Z,11.00
2022-11-16T09:33:16.933Z,11.10
2022-11-16T09:35:43.635Z,11.20
2022-11-16T09:38:11.804Z,11.20
2022-11-16T09:40:45.090Z,11.30
2022-11-16T09:43:24.755Z,11.30
2022-11-16T09:46:19.261Z,11.30
2022-11-16T09:48:47.166Z,11.30
2022-11-16T09:51:16.334Z,11.40
2022-11-16T09:53:55.294Z,11.40
2022-11-16T09:56:25.152Z,11.50
2022-11-16T09:59:05.280Z,11.50
2022-11-16T10:01:37.579Z,11.60
2022-11-16T10:04:18.640Z,11.60
2022-11-16T10:07:02.964Z,11.60
2022-11-16T10:09:30.385Z,11.60
2022-11-16T10:12:18.554Z,11.60
2022-11-16T10:15:04.767Z,11.60
2022-11-16T10:17:56.343Z,11.60
2022-11-16T10:20:44.438Z,11.60
2022-11-16T10:23:19.938Z,11.60
2022-11-16T10:25:52.580Z,11.70
2022-11-16T10:28:33.268Z,11.70
2022-11-16T10:31:17.900Z,11.70
2022-11-16T10:33:46.881Z,11.80
2022-11-16T10:36:15.365Z,11.80
2022-11-16T10:38:43.733Z,11.80
2022-11-16T10:41:16.429Z,11.80
2022-11-16T10:43:44.948Z,11.90
2022-11-16T10:46:33.502Z,11.90
2022-11-16T10:49:15.226Z,11.90
2022-11-16T10:51:42.961Z,11.90
2022-11-16T10:54:14.037Z,12.00
2022-11-16T10:56:45.412Z,11.90
2022-11-16T10:59:18.929Z,12.00
2022-11-16T11:01:47.931Z,12.00
2022-11-16T11:04:26.022Z,12.00
2022-11-16T11:06:55.296Z,12.10
2022-11-16T11:09:30.600Z,12.10
2022-11-16T11:12:36.814Z,12.20
2022-11-16T11:15:12.402Z,12.20
2022-11-16T11:17:41.475Z,12.20
2022-11-16T11:20:24.184Z,12.20
2022-11-16T11:23:04.218Z,12.20
2022-11-16T11:25:38.802Z,12.20
2022-11-16T11:28:14.289Z,12.20
2022-11-16T11:30:40.987Z,12.20
2022-11-16T11:33:12.971Z,12.30
2022-11-16T11:35:39.614Z,12.30
2022-11-16T11:38:08.298Z,12.30
2022-11-16T11:40:36.026Z,12.40
2022-11-16T11:43:05.633Z,12.50
2022-11-16T11:45:49.933Z,12.50
2022-11-16T11:48:38.061Z,12.50
2022-11-16T11:51:40.040Z,12.60
2022-11-16T11:54:16.540Z,12.70
2022-11-16T11:56:43.224Z,12.80
2022-11-16T11:59:17.946Z,12.80
2022-11-16T12:01:48.135Z,12.80
2022-11-16T12:04:52.958Z,12.90
2022-11-16T12:07:40.612Z,12.90
2022-11-16T12:10:25.257Z,12.90
2022-11-16T12:13:01.180Z,12.90
2022-11-16T12:15:42.650Z,12.80
2022-11-16T12:18:17.175Z,12.90
2022-11-16T12:20:52.974Z,12.90
2022-11-16T12:23:40.489Z,12.90
2022-11-16T12:26:36.752Z,12.90
2022-11-16T12:29:26.860Z,12.90
2022-11-16T12:32:05.453Z,13.00
2022-11-16T12:34:32.060Z,13.00
2022-11-16T12:37:04.653Z,13.00
2022-11-16T12:39:49.124Z,13.00
2022-11-16T12:42:24.975Z,13.10
2022-11-16T12:45:01.056Z,13.20
2022-11-16T12:47:45.853Z,13.20
2022-11-16T12:50:34.043Z,13.20
2022-11-16T12:53:22.412Z,13.20
2022-11-16T12:56:17.307Z,13.20
2022-11-16T12:58:58.831Z,13.30
2022-11-16T13:01:41.066Z,13.20
2022-11-16T13:04:10.562Z,13.20
2022-11-16T13:06:44.041Z,13.20
2022-11-16T13:09:21.510Z,13.10
2022-11-16T13:11:52.234Z,13.20
2022-11-16T13:14:40.150Z,13.20
2022-11-16T13:17:07.756Z,13.20
2022-11-16T13:19:43.821Z,13.20
2022-11-16T13:22:19.347Z,13.20
2022-11-16T13:24:51.780Z,13.20
2022-11-16T13:27:27.641Z,13.30
2022-11-16T13:29:57.037Z,13.30
2022-11-16T13:32:32.377Z,13.30
2022-11-16T13:35:00.201Z,13.30
2022-11-16T13:37:52.982Z,13.30
2022-11-16T13:40:27.103Z,13.20
2022-11-16T13:43:13.984Z,13.20
2022-11-16T13:46:00.705Z,13.10
2022-11-16T13:48:33.251Z,13.10
2022-11-16T13:51:07.727Z,13.10
2022-11-16T13:54:38.009Z,13.20
2022-11-16T13:56:28.946Z,13.10
2022-11-16T13:58:58.145Z,13.10
2022-11-16T14:01:26.518Z,13.00
2022-11-16T14:04:31.794Z,13.00
2022-11-16T14:06:59.583Z,12.90
2022-11-16T14:09:49.133Z,13.00
2022-11-16T14:12:38.845Z,13.00
2022-11-16T14:15:35.870Z,13.00
2022-11-16T14:18:32.841Z,13.00
2022-11-16T14:21:12.204Z,13.00
2022-11-16T14:23:50.976Z,13.00
2022-11-16T14:26:42.254Z,13.00
2022-11-16T14:29:30.027Z,13.10
2022-11-16T14:31:58.759Z,13.00
2022-11-16T14:34:43.475Z,13.00
2022-11-16T14:37:32.223Z,12.90
2022-11-16T14:40:13.830Z,12.90
2022-11-16T14:43:21.525Z,12.80
2022-11-16T14:45:54.197Z,12.80
2022-11-16T14:48:25.728Z,12.70
2022-11-16T14:51:10.473Z,12.60
2022-11-16T14:53:41.567Z,12.70
2022-11-16T14:56:16.620Z,12.60
2022-11-16T14:58:57.763Z,12.60
2022-11-16T15:01:31.648Z,12.60
2022-11-16T15:04:10.751Z,12.50
2022-11-16T15:06:57.679Z,12.50
2022-11-16T15:09:28.769Z,12.50
2022-11-16T15:12:15.758Z,12.40
2022-11-16T15:14:52.996Z,12.40
2022-11-16T15:17:22.461Z,12.30
2022-11-16T15:20:14.056Z,12.30
2022-11-16T15:22:42.650Z,12.30
2022-11-16T15:25:28.142Z,12.30
2022-11-16T15:27:57.115Z,12.30
2022-11-16T15:30:29.569Z,12.20
2022-11-16T15:32:56.675Z,12.20
2022-11-16T15:35:34.258Z,12.10
2022-11-16T15:38:06.729Z,12.10
2022-11-16T15:40:34.798Z,12.00
2022-11-16T15:43:04.749Z,11.90
2022-11-16T15:45:31.930Z,11.80
2022-11-16T15:48:01.659Z,11.80
2022-11-16T15:50:28.660Z,11.70
2022-11-16T15:52:56.416Z,11.70
2022-11-16T15:55:24.663Z,11.70
2022-11-16T15:58:06.611Z,11.70
2022-11-16T16:00:35.869Z,11.70
2022-11-16T16:03:18.930Z,11.70
2022-11-16T16:05:45.657Z,11.70
2022-11-16T16:08:36.724Z,11.70
2022-11-16T16:11:10.661Z,11.60
2022-11-16T16:13:43.072Z,11.60
2022-11-16T16:16:29.235Z,11.50
2022-11-16T16:19:02.626Z,11.30
2022-11-16T16:21:44.987Z,11.30
2022-11-16T16:24:45.457Z,11.20
2022-11-16T16:27:14.966Z,11.20
2022-11-16T16:29:42.183Z,11.10
2022-11-16T16:32:14.416Z,11.10
2022-11-16T16:34:42.404Z,11.20
2022-11-16T16:37:12.857Z,11.20
2022-11-16T16:39:40.853Z,11.20
2022-11-16T16:42:13.044Z,11.20
2022-11-16T16:44:40.377Z,11.20
2022-11-16T16:47:07.600Z,11.10
2022-11-16T16:49:34.386Z,11.00
2022-11-16T16:52:01.063Z,11.00
2022-11-16T16:54:30.653Z,11.00
2022-11-16T16:56:57.937Z,11.00
2022-11-16T16:59:25.222Z,10.90
2022-11-16T17:01:52.404Z,10.80
2022-11-16T17:04:19.250Z,10.80
2022-11-16T17:06:46.711Z,10.80
2022-11-16T17:09:13.583Z,10.70
2022-11-16T17:11:40.141Z,10.70
2022-11-16T17:14:09.217Z,10.80
2022-11-16T17:16:36.279Z,10.60
2022-11-16T17:19:04.049Z,10.60
2022-11-16T17:21:31.094Z,10.60
2022-11-16T17:23:57.810Z,10.60
2022-11-16T17:26:29.031Z,10.70
2022-11-16T17:28:56.931Z,10.70
2022-11-16T17:31:24.689Z,10.70
2022-11-16T17:33:51.854Z,10.70
2022-11-16T17:36:19.063Z,10.60
2022-11-16T17:38:46.164Z,10.60
2022-11-16T17:41:18.442Z,10.60
2022-11-16T17:43:46.501Z,10.50
2022-11-16T17:46:14.505Z,10.50
2022-11-16T17:48:43.212Z,10.50
2022-11-16T17:51:14.980Z,10.40
2022-11-16T17:53:44.119Z,10.30
2022-11-16T17:56:16.267Z,10.30
2022-11-16T17:58:45.041Z,10.30
2022-11-16T18:01:13.152Z,10.30
2022-11-16T18:03:40.343Z,10.30
2022-11-16T18:06:16.341Z,10.20
2022-11-16T18:08:43.721Z,10.10
2022-11-16T18:11:16.778Z,10.00
2022-11-16T18:13:43.921Z,10.00
2022-11-16T18:16:19.437Z,10.00
2022-11-16T18:18:47.742Z,10.00
2022-11-16T18:21:20.395Z,9.90
2022-11-16T18:23:47.660Z,9.90
2022-11-16T18:26:16.598Z,9.90
2022-11-16T18:28:47.139Z,9.90
2022-11-16T18:31:16.010Z,9.90
2022-11-16T18:33:42.928Z,9.80
2022-11-16T18:36:12.113Z,9.80
2022-11-16T18:38:38.759Z,9.70
2022-11-16T18:41:06.210Z,9.70
2022-11-16T18:43:34.353Z,9.60
2022-11-16T18:46:01.316Z,9.60
2022-11-16T18:48:28.193Z,9.60
2022-11-16T18:51:02.352Z,9.60
2022-11-16T18:53:30.364Z,9.60
2022-11-16T18:55:58.246Z,9.50
2022-11-16T18:58:49.335Z,9.50
2022-11-16T19:01:14.844Z,9.40
2022-11-16T19:03:41.495Z,9.50
2022-11-16T19:06:09.835Z,9.50
2022-11-16T19:08:41.202Z,9.50
2022-11-16T19:11:12.890Z,9.50
2022-11-16T19:13:40.923Z,9.40
2022-11-16T19:16:09.284Z,9.40
2022-11-16T19:18:36.758Z,9.40
2022-11-16T19:21:08.783Z,9.20
2022-11-16T19:23:40.350Z,9.20
2022-11-16T19:26:07.473Z,9.10
2022-11-16T19:28:38.038Z,9.10
2022-11-16T19:31:09.330Z,9.00
2022-11-16T19:33:36.544Z,9.10
2022-11-16T19:36:07.657Z,9.10
2022-11-16T19:38:34.474Z,9.10
2022-11-16T19:41:01.222Z,9.10
2022-11-16T19:43:28.047Z,9.10
2022-11-16T19:45:54.663Z,9.10
2022-11-16T19:48:21.287Z,9.20
2022-11-16T19:50:47.863Z,9.20
2022-11-16T19:53:14.511Z,9.30
2022-11-16T19:55:41.949Z,9.20
2022-11-16T19:58:08.553Z,9.20
2022-11-16T20:00:35.163Z,9.20
2022-11-16T20:03:01.860Z,9.10
2022-11-16T20:05:29.929Z,9.10
2022-11-16T20:07:56.723Z,9.10
2022-11-16T20:10:23.373Z,9.00
2022-11-16T20:12:49.984Z,8.90
2022-11-16T20:15:16.629Z,8.90
2022-11-16T20:17:43.213Z,8.80
2022-11-16T20:20:10.265Z,8.70
2022-11-16T20:22:36.993Z,8.60
2022-11-16T20:25:03.721Z,8.60
2022-11-16T20:27:30.287Z,8.60
2022-11-16T20:29:56.921Z,8.60
2022-11-16T20:32:24.937Z,8.60
2022-11-16T20:34:51.488Z,8.70
2022-11-16T20:37:18.101Z,8.70
2022-11-16T20:39:46.989Z,8.70
2022-11-16T20:42:13.995Z,8.70
2022-11-16T20:44:40.594Z,8.70
2022-11-16T20:47:07.254Z,8.80
2022-11-16T20:49:33.956Z,8.70
2022-11-16T20:52:00.858Z,8.70
2022-11-16T20:54:27.479Z,8.60
2022-11-16T20:56:54.144Z,8.70
2022-11-16T20:59:20.770Z,8.60
2022-11-16T21:01:48.668Z,8.60
2022-11-16T21:04:15.654Z,8.60
2022-11-16T21:06:42.519Z,8.50
2022-11-16T21:09:11.401Z,8.50
2022-11-16T21:11:56.665Z,8.50
2022-11-16T21:14:23.721Z,8.40
2022-11-16T21:16:50.428Z,8.40
2022-11-16T21:19:17.074Z,8.40
2022-11-16T21:21:43.660Z,8.30
2022-11-16T21:24:10.774Z,8.30
2022-11-16T21:26:37.819Z,8.40
2022-11-16T21:29:04.505Z,8.40
2022-11-16T21:31:33.337Z,8.50
2022-11-16T21:34:00.851Z,8.40
2022-11-16T21:36:29.931Z,8.40
2022-11-16T21:38:57.930Z,8.40
2022-11-16T21:41:25.883Z,8.30
2022-11-16T21:43:52.674Z,8.30
2022-11-16T21:46:22.066Z,8.40
2022-11-16T21:48:49.042Z,8.30
2022-11-16T21:51:18.099Z,8.30
2022-11-16T21:53:45.098Z,8.30
2022-11-16T21:56:17.250Z,8.30
2022-11-16T21:58:44.594Z,8.30
2022-11-16T22:01:12.756Z,8.20
2022-11-16T22:03:39.791Z,8.20
2022-11-16T22:06:26.659Z,8.20
2022-11-16T22:08:53.363Z,8.30
2022-11-16T22:11:22.093Z,8.20
2022-11-16T22:13:49.812Z,8.30
2022-11-16T22:16:18.486Z,8.20
2022-11-16T22:18:45.339Z,8.20
2022-11-16T22:21:12.202Z,8.10
2022-11-16T22:23:39.100Z,8.10
2022-11-16T22:26:09.172Z,8.10
2022-11-16T22:28:36.397Z,8.20
2022-11-16T22:31:05.284Z,8.20
2022-11-16T22:33:33.535Z,8.20
2022-11-16T22:36:00.662Z,8.10
2022-11-16T22:38:27.472Z,8.10
2022-11-16T22:40:57.775Z,8.10
2022-11-16T22:43:29.631Z,8.10
2022-11-16T22:46:01.186Z,8.10
2022-11-16T22:48:36.963Z,8.20
2022-11-16T22:51:25.072Z,8.20
2022-11-16T22:53:59.635Z,8.10
2022-11-16T22:56:27.163Z,8.10
2022-11-16T22:58:54.164Z,8.10
2022-11-16T23:01:21.018Z,8.20
2022-11-16T23:03:48.273Z,8.20
2022-11-16T23:06:15.634Z,8.20
2022-11-16T23:08:42.755Z,8.20
2022-11-16T23:11:33.406Z,8.20
2022-11-16T23:14:19.160Z,8.20
2022-11-16T23:16:46.906Z,8.20
2022-11-16T23:19:34.721Z,8.20
2022-11-16T23:22:20.069Z,8.30
2022-11-16T23:25:06.284Z,8.30
2022-11-16T23:27:42.514Z,8.40
2022-11-16T23:30:12.866Z,8.40
2022-11-16T23:32:40.496Z,8.40
2022-11-16T23:35:08.293Z,8.40
2022-11-16T23:37:35.269Z,8.50
2022-11-16T23:40:01.863Z,8.60
2022-11-16T23:43:04.003Z,8.60
2022-11-16T23:45:30.667Z,8.60
2022-11-16T23:47:57.263Z,8.60
2022-11-16T23:50:23.944Z,8.70
2022-11-16T23:52:50.500Z,8.60
2022-11-16T23:55:17.107Z,8.60
2022-11-16T23:57:43.757Z,8.60
